sensor_id;sensor_type;location;lat;lon;timestamp;P1;durP1;ratioP1;P2;durP2;ratioP2
56631;SDS011;42503;39.928;-75.152;2023-09-18T00:00:06;25.52;;;20.73;;
56631;SDS011;42503;39.928;-75.152;2023-09-18T00:10:12;25.23;;;19.48;;
56631;SDS011;42503;39.928;-75.152;2023-09-18T00:20:17;21.85;;;17.10;;
56631;SDS011;42503;39.928;-75.152;2023-09-18T00:30:23;20.87;;;16.93;;
56631;SDS011;42503;39.928;-75.152;2023-09-18T00:40:24;17.15;;;14.93;;
56631;SDS011;42503;39.928;-75.152;2023-09-18T00:50:26;19.33;;;15.95;;
56631;SDS011;42503;39.928;-75.152;2023-09-18T01:00:31;17.08;;;13.73;;
56631;SDS011;42503;39.928;-75.152;2023-09-18T01:10:39;16.20;;;13.80;;
56631;SDS011;42503;39.928;-75.152;2023-09-18T01:20:50;15.40;;;12.80;;
56631;SDS011;42503;39.928;-75.152;2023-09-18T01:30:54;13.65;;;11.45;;
56631;SDS011;42503;39.928;-75.152;2023-09-18T01:40:58;14.00;;;11.63;;
56631;SDS011;42503;39.928;-75.152;2023-09-18T01:51:00;12.63;;;10.77;;
56631;SDS011;42503;39.928;-75.152;2023-09-18T02:01:01;12.23;;;10.80;;
56631;SDS011;42503;39.928;-75.152;2023-09-18T02:11:03;10.93;;;9.32;;
56631;SDS011;42503;39.928;-75.152;2023-09-18T02:21:05;11.18;;;9.30;;
56631;SDS011;42503;39.928;-75.152;2023-09-18T02:31:06;10.48;;;8.75;;
56631;SDS011;42503;39.928;-75.152;2023-09-18T02:41:09;10.75;;;8.65;;
56631;SDS011;42503;39.928;-75.152;2023-09-18T02:51:10;11.27;;;9.07;;
56631;SDS011;42503;39.928;-75.152;2023-09-18T03:01:12;9.30;;;8.27;;
56631;SDS011;42503;39.928;-75.152;2023-09-18T03:11:13;10.30;;;8.18;;
56631;SDS011;42503;39.928;-75.152;2023-09-18T03:21:18;9.45;;;7.45;;
56631;SDS011;42503;39.928;-75.152;2023-09-18T03:31:19;7.82;;;7.00;;
56631;SDS011;42503;39.928;-75.152;2023-09-18T03:41:23;7.75;;;6.93;;
56631;SDS011;42503;39.928;-75.152;2023-09-18T03:51:27;7.55;;;6.63;;
56631;SDS011;42503;39.928;-75.152;2023-09-18T04:01:32;8.20;;;6.75;;
56631;SDS011;42503;39.928;-75.152;2023-09-18T04:21:38;8.07;;;6.60;;
56631;SDS011;42503;39.928;-75.152;2023-09-18T04:31:39;6.90;;;6.18;;
56631;SDS011;42503;39.928;-75.152;2023-09-18T04:41:40;6.55;;;5.85;;
56631;SDS011;42503;39.928;-75.152;2023-09-18T04:51:42;6.53;;;5.30;;
56631;SDS011;42503;39.928;-75.152;2023-09-18T05:01:44;6.00;;;5.40;;
56631;SDS011;42503;39.928;-75.152;2023-09-18T05:11:48;5.72;;;5.10;;
56631;SDS011;42503;39.928;-75.152;2023-09-18T05:21:50;6.32;;;5.40;;
56631;SDS011;42503;39.928;-75.152;2023-09-18T05:31:51;5.88;;;5.25;;
56631;SDS011;42503;39.928;-75.152;2023-09-18T05:41:52;6.35;;;4.88;;
56631;SDS011;42503;39.928;-75.152;2023-09-18T05:51:54;6.53;;;4.97;;
56631;SDS011;42503;39.928;-75.152;2023-09-18T06:01:55;6.03;;;4.70;;
56631;SDS011;42503;39.928;-75.152;2023-09-18T06:11:56;5.25;;;4.75;;
56631;SDS011;42503;39.928;-75.152;2023-09-18T06:21:59;4.53;;;4.07;;
56631;SDS011;42503;39.928;-75.152;2023-09-18T06:32:00;6.07;;;4.85;;
56631;SDS011;42503;39.928;-75.152;2023-09-18T06:42:02;4.70;;;4.18;;
56631;SDS011;42503;39.928;-75.152;2023-09-18T06:52:03;5.07;;;4.18;;
56631;SDS011;42503;39.928;-75.152;2023-09-18T07:02:07;4.43;;;4.03;;
56631;SDS011;42503;39.928;-75.152;2023-09-18T07:12:08;4.93;;;4.22;;
56631;SDS011;42503;39.928;-75.152;2023-09-18T07:22:12;4.30;;;3.90;;
56631;SDS011;42503;39.928;-75.152;2023-09-18T07:32:13;4.43;;;4.03;;
56631;SDS011;42503;39.928;-75.152;2023-09-18T07:42:15;4.28;;;3.88;;
56631;SDS011;42503;39.928;-75.152;2023-09-18T07:52:17;4.63;;;4.22;;
56631;SDS011;42503;39.928;-75.152;2023-09-18T08:02:21;4.13;;;3.72;;
56631;SDS011;42503;39.928;-75.152;2023-09-18T08:12:24;4.10;;;3.70;;
56631;SDS011;42503;39.928;-75.152;2023-09-18T08:22:26;4.05;;;3.65;;
56631;SDS011;42503;39.928;-75.152;2023-09-18T08:32:30;3.63;;;3.20;;
56631;SDS011;42503;39.928;-75.152;2023-09-18T08:42:35;4.23;;;3.50;;
56631;SDS011;42503;39.928;-75.152;2023-09-18T08:52:39;3.58;;;3.28;;
56631;SDS011;42503;39.928;-75.152;2023-09-18T09:02:43;3.83;;;3.30;;
56631;SDS011;42503;39.928;-75.152;2023-09-18T09:12:49;3.60;;;3.30;;
56631;SDS011;42503;39.928;-75.152;2023-09-18T09:22:59;3.67;;;3.38;;
56631;SDS011;42503;39.928;-75.152;2023-09-18T09:33:06;3.75;;;3.45;;
56631;SDS011;42503;39.928;-75.152;2023-09-18T09:43:09;3.17;;;2.83;;
56631;SDS011;42503;39.928;-75.152;2023-09-18T09:53:14;3.53;;;3.20;;
56631;SDS011;42503;39.928;-75.152;2023-09-18T10:03:17;3.20;;;2.90;;
56631;SDS011;42503;39.928;-75.152;2023-09-18T10:13:39;3.50;;;3.20;;
56631;SDS011;42503;39.928;-75.152;2023-09-18T10:33:59;3.30;;;3.00;;
56631;SDS011;42503;39.928;-75.152;2023-09-18T10:44:04;3.42;;;2.90;;
56631;SDS011;42503;39.928;-75.152;2023-09-18T10:54:07;2.90;;;2.60;;
56631;SDS011;42503;39.928;-75.152;2023-09-18T11:04:12;2.88;;;2.55;;
56631;SDS011;42503;39.928;-75.152;2023-09-18T11:14:15;3.30;;;3.00;;
56631;SDS011;42503;39.928;-75.152;2023-09-18T11:24:17;3.33;;;3.03;;
56631;SDS011;42503;39.928;-75.152;2023-09-18T11:34:27;3.37;;;3.07;;
56631;SDS011;42503;39.928;-75.152;2023-09-18T11:44:39;3.30;;;3.00;;
56631;SDS011;42503;39.928;-75.152;2023-09-18T11:54:42;2.97;;;2.72;;
56631;SDS011;42503;39.928;-75.152;2023-09-18T12:04:47;3.00;;;2.47;;
56631;SDS011;42503;39.928;-75.152;2023-09-18T12:14:50;3.05;;;2.75;;
56631;SDS011;42503;39.928;-75.152;2023-09-18T12:24:53;3.30;;;3.00;;
56631;SDS011;42503;39.928;-75.152;2023-09-18T12:34:57;2.78;;;2.58;;
56631;SDS011;42503;39.928;-75.152;2023-09-18T12:44:59;2.42;;;2.22;;
56631;SDS011;42503;39.928;-75.152;2023-09-18T12:55:00;3.30;;;2.75;;
56631;SDS011;42503;39.928;-75.152;2023-09-18T13:05:04;3.00;;;2.70;;
56631;SDS011;42503;39.928;-75.152;2023-09-18T13:15:06;2.97;;;2.38;;
56631;SDS011;42503;39.928;-75.152;2023-09-18T13:35:20;2.60;;;2.40;;
56631;SDS011;42503;39.928;-75.152;2023-09-18T13:45:33;2.67;;;2.47;;
56631;SDS011;42503;39.928;-75.152;2023-09-18T13:55:38;3.03;;;2.58;;
56631;SDS011;42503;39.928;-75.152;2023-09-18T14:05:42;4.15;;;2.63;;
56631;SDS011;42503;39.928;-75.152;2023-09-18T14:15:44;4.00;;;3.10;;
56631;SDS011;42503;39.928;-75.152;2023-09-18T14:25:45;4.38;;;2.80;;
56631;SDS011;42503;39.928;-75.152;2023-09-18T14:35:47;3.60;;;2.65;;
56631;SDS011;42503;39.928;-75.152;2023-09-18T14:45:48;3.30;;;3.00;;
56631;SDS011;42503;39.928;-75.152;2023-09-18T14:55:49;3.70;;;3.28;;
56631;SDS011;42503;39.928;-75.152;2023-09-18T15:05:55;4.32;;;2.97;;
56631;SDS011;42503;39.928;-75.152;2023-09-18T15:26:04;5.75;;;3.13;;
56631;SDS011;42503;39.928;-75.152;2023-09-18T15:36:05;3.25;;;2.85;;
56631;SDS011;42503;39.928;-75.152;2023-09-18T15:46:09;3.17;;;2.80;;
56631;SDS011;42503;39.928;-75.152;2023-09-18T15:56:14;3.58;;;2.90;;
56631;SDS011;42503;39.928;-75.152;2023-09-18T16:06:16;6.10;;;3.15;;
56631;SDS011;42503;39.928;-75.152;2023-09-18T16:16:19;3.42;;;2.72;;
56631;SDS011;42503;39.928;-75.152;2023-09-18T16:26:23;2.78;;;2.47;;
56631;SDS011;42503;39.928;-75.152;2023-09-18T16:36:28;3.90;;;2.70;;
56631;SDS011;42503;39.928;-75.152;2023-09-18T16:46:29;4.05;;;2.80;;
56631;SDS011;42503;39.928;-75.152;2023-09-18T16:56:30;3.47;;;3.00;;
56631;SDS011;42503;39.928;-75.152;2023-09-18T17:06:32;2.85;;;2.55;;
56631;SDS011;42503;39.928;-75.152;2023-09-18T17:16:35;4.22;;;3.17;;
56631;SDS011;42503;39.928;-75.152;2023-09-18T17:26:37;3.35;;;2.65;;
56631;SDS011;42503;39.928;-75.152;2023-09-18T17:36:38;6.45;;;2.60;;
56631;SDS011;42503;39.928;-75.152;2023-09-18T17:46:41;3.45;;;3.05;;
56631;SDS011;42503;39.928;-75.152;2023-09-18T17:56:45;3.47;;;2.53;;
56631;SDS011;42503;39.928;-75.152;2023-09-18T18:06:47;2.60;;;2.40;;
56631;SDS011;42503;39.928;-75.152;2023-09-18T18:16:49;3.28;;;2.95;;
56631;SDS011;42503;39.928;-75.152;2023-09-18T18:26:50;3.75;;;2.58;;
56631;SDS011;42503;39.928;-75.152;2023-09-18T18:36:54;4.72;;;3.03;;
56631;SDS011;42503;39.928;-75.152;2023-09-18T18:46:55;3.50;;;3.20;;
56631;SDS011;42503;39.928;-75.152;2023-09-18T18:56:58;3.58;;;3.10;;
56631;SDS011;42503;39.928;-75.152;2023-09-18T19:07:03;3.17;;;2.88;;
56631;SDS011;42503;39.928;-75.152;2023-09-18T19:17:12;3.85;;;2.70;;
56631;SDS011;42503;39.928;-75.152;2023-09-18T19:27:13;3.50;;;3.00;;
56631;SDS011;42503;39.928;-75.152;2023-09-18T19:37:15;5.07;;;3.20;;
56631;SDS011;42503;39.928;-75.152;2023-09-18T19:47:18;4.68;;;3.25;;
56631;SDS011;42503;39.928;-75.152;2023-09-18T19:57:20;3.80;;;3.13;;
56631;SDS011;42503;39.928;-75.152;2023-09-18T20:07:21;3.97;;;2.47;;
56631;SDS011;42503;39.928;-75.152;2023-09-18T20:17:22;2.80;;;2.53;;
56631;SDS011;42503;39.928;-75.152;2023-09-18T20:27:24;3.78;;;2.63;;
56631;SDS011;42503;39.928;-75.152;2023-09-18T20:37:25;3.63;;;2.90;;
56631;SDS011;42503;39.928;-75.152;2023-09-18T20:47:26;2.85;;;2.55;;
56631;SDS011;42503;39.928;-75.152;2023-09-18T20:57:28;2.88;;;2.60;;
56631;SDS011;42503;39.928;-75.152;2023-09-18T21:07:32;2.80;;;2.53;;
56631;SDS011;42503;39.928;-75.152;2023-09-18T21:17:34;2.88;;;2.55;;
56631;SDS011;42503;39.928;-75.152;2023-09-18T21:27:35;2.75;;;2.25;;
56631;SDS011;42503;39.928;-75.152;2023-09-18T21:37:37;2.67;;;2.40;;
56631;SDS011;42503;39.928;-75.152;2023-09-18T21:47:38;3.20;;;2.20;;
56631;SDS011;42503;39.928;-75.152;2023-09-18T21:57:40;2.95;;;2.30;;
56631;SDS011;42503;39.928;-75.152;2023-09-18T22:07:44;2.58;;;2.22;;
56631;SDS011;42503;39.928;-75.152;2023-09-18T22:17:46;3.20;;;2.03;;
56631;SDS011;42503;39.928;-75.152;2023-09-18T22:27:49;2.85;;;2.10;;
56631;SDS011;42503;39.928;-75.152;2023-09-18T22:37:52;2.13;;;1.85;;
56631;SDS011;42503;39.928;-75.152;2023-09-18T22:58:39;1.92;;;1.73;;
56631;SDS011;42503;39.928;-75.152;2023-09-18T23:08:49;5.38;;;1.88;;
56631;SDS011;42503;39.928;-75.152;2023-09-18T23:18:50;3.47;;;2.30;;
56631;SDS011;42503;39.928;-75.152;2023-09-18T23:28:51;2.63;;;1.70;;
56631;SDS011;42503;39.928;-75.152;2023-09-18T23:38:53;1.92;;;1.83;;
56631;SDS011;42503;39.928;-75.152;2023-09-18T23:48:54;3.17;;;2.13;;
56631;SDS011;42503;39.928;-75.152;2023-09-18T23:59:02;2.13;;;1.88;;
